logo
Search for airport 
image banner adimage banner adimage banner ad
image banner ad

FAMABU - Mabula

Located in , South Africa

ICAO - , IATA -

Data provided by Airmate  

General information

Coordinates: S24°45'4" E27°55'38"
Elevation is 4238 feet MSL.
 
View others Airports in (unassigned)

Operational data

Special qualification required
Current time UTC:
Current local time:
Weather at : - ( 0 km )
METAR: PAWM 170610Z AUTO 16017G23KT 4SM -SN BR FEW003 OVC007 00/00 A3000 RMK AO2 CIG 007V012 P0000 FZRANO
View NOTAMs / SUP AIP / TFR affecting this airport [VIEW]
Communications frequencies: [VIEW]

Runways:

RWY identifierQFULength (ft)Width (ft)SurfaceLDA (ft)
14121°360966SAND
32301°360966SAND

Airport contact information

Address: South Africa

Satellite view of FAMABU